Arbutus, MD

10:28 PM EST on December 21, 2014 (GMT -0500)
Relay / Arbutus | Change Station
CLOSE
Current Station
Personal Weather Station
Location: Relay, MD
Elevation: 221 ft
Nearby Weather Stations

Elev 221 ft 39.24 °N, 76.71 °W | Updated 2 minutes ago

Clear
Clear
30.2 °F
Feels Like 30 °F
N
0.0
Wind Variable Wind from NNE
Gusts 0.0 mph

Today
High -- | Low -- °F
--% Chance of Precip.
Yesterday
High -- | Low -- °F
Precip. -- in
7:22 AM 4:47 PM
New Moon, 0% visible
Pressure 30.35 in
Visibility 8.0 miles
Clouds Few 25000 ft
Windchill 30 °F
Dew Point 24 °F
Humidity 77%
Rainfall 0.00 in
Snow Depth Not available.
UV 0 out of 12
Pollen .10 out of 12
Air Quality Not available.
Flu Activity Not available.
METAR KBWI 220254Z 05004KT 8SM FEW250 M01/M06 A3034 RMK AO2 SLP276 T10061056 53001

More Conditions Fewer Conditions

Pressure 30.35 in
Visibility 8.0 miles
Clouds Few 25000 ft
Windchill 30 °F
Dew Point 24 °F
Humidity 77%
Rainfall 0.00 in
Snow Depth Not available.
UV 0 out of 12
Pollen .10 out of 12
Air Quality Not available.
Flu Activity Not available.
METAR KBWI 220254Z 05004KT 8SM FEW250 M01/M06 A3034 RMK AO2 SLP276 T10061056 53001

More Conditions Fewer Conditions

10-Day Weather Forecast

Almanac

Astronomy

Dec. 21, 2014 Rise Set
Actual Time
Civil Twilight
Nautical Twilight
Astronomical Twilight
Moon
Length of Visible Light
Length of Day
Tomorrow will be .
, % of the Moon is Illuminated

Today's Extremes

State Highs State Lows

Community

WunderPhotos

Upload Photos

1,779,529 photos uploaded!

WunderBlogs® & News

Nearby

Air Quality

  Air Quality AQ Index Pollutant
Not available.

Snow Depth

Station Depth Elevation

Earthquake Activity

City Distance Mag. Time & Date
Minimum magnitude displayed is 2.5.

Coastal Water Temperatures

Place Temperature

Nearby Weather Stations